createdAt,value
2018-08-22T00:00:43.441Z,100335.59
2018-08-22T00:03:09.407Z,100333.16
2018-08-22T00:05:35.374Z,100336.38
2018-08-22T00:08:01.309Z,100334.03
2018-08-22T00:10:27.281Z,100334.91
2018-08-22T00:12:53.200Z,100335.15
2018-08-22T00:15:19.254Z,100332.13
2018-08-22T00:17:45.127Z,100328.30
2018-08-22T00:20:11.092Z,100326.02
2018-08-22T00:22:37.084Z,100332.39
2018-08-22T00:25:02.997Z,100326.65
2018-08-22T00:27:28.927Z,100325.92
2018-08-22T00:29:54.881Z,100320.68
2018-08-22T00:32:20.841Z,100320.29
2018-08-22T00:34:46.784Z,100323.48
2018-08-22T00:37:12.708Z,100321.68
2018-08-22T00:39:38.654Z,100317.30
2018-08-22T00:42:04.580Z,100314.95
2018-08-22T00:44:30.529Z,100318.58
2018-08-22T00:46:56.466Z,100324.41
2018-08-22T00:49:22.419Z,100323.44
2018-08-22T00:51:48.366Z,100313.00
2018-08-22T00:54:14.319Z,100304.90
2018-08-22T00:56:40.344Z,100316.20
2018-08-22T00:59:06.285Z,100316.72
2018-08-22T01:01:32.211Z,100308.81
2018-08-22T01:03:58.134Z,100310.78
2018-08-22T01:06:24.235Z,100308.84
2018-08-22T01:08:50.178Z,100306.96
2018-08-22T01:11:16.126Z,100301.53
2018-08-22T01:13:42.072Z,100300.35
2018-08-22T01:16:08.003Z,100302.17
2018-08-22T01:18:33.929Z,100301.13
2018-08-22T01:20:59.864Z,100302.63
2018-08-22T01:23:25.787Z,100298.73
2018-08-22T01:25:51.728Z,100299.95
2018-08-22T01:28:17.669Z,100302.78
2018-08-22T01:30:43.608Z,100301.41
2018-08-22T01:33:09.527Z,100301.28
2018-08-22T01:35:35.476Z,100298.95
2018-08-22T01:38:01.406Z,100300.61
2018-08-22T01:40:27.354Z,100299.07
2018-08-22T01:42:53.320Z,100302.59
2018-08-22T01:45:19.256Z,100301.59
2018-08-22T01:47:45.199Z,100298.19
2018-08-22T01:50:11.163Z,100287.61
2018-08-22T01:52:37.096Z,100298.94
2018-08-22T01:55:03.050Z,100295.64
2018-08-22T01:57:28.975Z,100295.15
2018-08-22T01:59:54.902Z,100287.91
2018-08-22T02:02:20.847Z,100282.48
2018-08-22T02:04:46.801Z,100284.79
2018-08-22T02:07:12.744Z,100283.80
2018-08-22T02:09:38.692Z,100287.98
2018-08-22T02:12:04.622Z,100285.61
2018-08-22T02:14:30.574Z,100281.66
2018-08-22T02:16:56.519Z,100283.03
2018-08-22T02:19:22.459Z,100282.55
2018-08-22T02:21:48.381Z,100276.64
2018-08-22T02:24:14.312Z,100274.80
2018-08-22T02:26:40.272Z,100277.97
2018-08-22T02:29:06.226Z,100277.17
2018-08-22T02:31:32.158Z,100272.16
2018-08-22T02:33:58.108Z,100265.41
2018-08-22T02:36:24.071Z,100272.96
2018-08-22T02:38:50.029Z,100273.66
2018-08-22T02:41:16.018Z,100270.80
2018-08-22T02:43:41.964Z,100271.23
2018-08-22T02:46:07.992Z,100276.02
2018-08-22T02:48:33.921Z,100272.13
2018-08-22T02:50:59.887Z,100263.61
2018-08-22T02:53:25.819Z,100274.92
2018-08-22T02:55:51.784Z,100265.00
2018-08-22T02:58:17.720Z,100261.83
2018-08-22T03:00:43.648Z,100257.55
2018-08-22T03:03:09.604Z,100266.53
2018-08-22T03:05:35.553Z,100267.70
2018-08-22T03:08:01.595Z,100258.96
2018-08-22T03:10:27.534Z,100263.52
2018-08-22T03:12:53.498Z,100266.88
2018-08-22T03:15:19.448Z,100264.97
2018-08-22T03:17:45.385Z,100266.28
2018-08-22T03:20:11.349Z,100254.37
2018-08-22T03:22:37.351Z,100266.03
2018-08-22T03:25:03.347Z,100264.65
2018-08-22T03:27:29.328Z,100258.44
2018-08-22T03:29:55.400Z,100260.69
2018-08-22T03:32:21.422Z,100270.30
2018-08-22T03:34:47.426Z,100274.39
2018-08-22T03:37:13.401Z,100275.60
2018-08-22T03:39:39.353Z,100276.14
2018-08-22T03:42:05.312Z,100273.19
2018-08-22T03:44:33.875Z,100266.19
2018-08-22T03:47:00.054Z,100273.95
2018-08-22T03:49:26.009Z,100274.67
2018-08-22T03:51:51.973Z,100273.95
2018-08-22T03:54:17.941Z,100265.85
2018-08-22T03:56:43.887Z,100258.73
2018-08-22T03:59:09.872Z,100271.86
2018-08-22T04:01:35.850Z,100270.92
2018-08-22T04:04:01.848Z,100270.84
2018-08-22T04:06:27.788Z,100267.54
2018-08-22T04:08:53.782Z,100271.37
2018-08-22T04:11:19.769Z,100271.72
2018-08-22T04:13:45.715Z,100266.31
2018-08-22T04:16:11.668Z,100269.45
2018-08-22T04:18:37.646Z,100267.45
2018-08-22T04:21:03.585Z,100266.82
2018-08-22T04:23:29.551Z,100271.47
2018-08-22T04:25:55.519Z,100275.67
2018-08-22T04:28:21.475Z,100273.13
2018-08-22T04:30:47.434Z,100275.23
2018-08-22T04:33:13.402Z,100278.53
2018-08-22T04:35:39.360Z,100268.27
2018-08-22T04:40:31.072Z,100267.35
2018-08-22T04:42:57.023Z,100271.11
2018-08-22T04:45:22.992Z,100262.55
2018-08-22T04:47:48.920Z,100264.88
2018-08-22T04:50:14.904Z,100262.98
2018-08-22T04:52:40.892Z,100268.74
2018-08-22T04:55:06.835Z,100261.23
2018-08-22T04:57:32.803Z,100265.55
2018-08-22T04:59:58.757Z,100260.87
2018-08-22T05:02:24.739Z,100258.50
2018-08-22T05:04:50.692Z,100255.23
2018-08-22T05:07:16.656Z,100256.89
2018-08-22T05:09:42.590Z,100251.27
2018-08-22T05:12:08.524Z,100259.50
2018-08-22T05:14:34.631Z,100254.22
2018-08-22T05:17:00.602Z,100259.27
2018-08-22T05:19:26.628Z,100258.48
2018-08-22T05:21:52.689Z,100259.39
2018-08-22T05:24:18.627Z,100261.06
2018-08-22T05:26:44.581Z,100264.55
2018-08-22T05:29:10.531Z,100259.92
2018-08-22T05:31:36.568Z,100259.08
2018-08-22T05:34:02.570Z,100253.99
2018-08-22T05:36:28.510Z,100252.08
2018-08-22T05:38:54.469Z,100259.88
2018-08-22T05:41:20.468Z,100258.16
2018-08-22T05:43:46.417Z,100256.23
2018-08-22T05:46:12.373Z,100254.34
2018-08-22T05:48:38.477Z,100256.60
2018-08-22T05:51:04.420Z,100254.54
2018-08-22T05:53:30.390Z,100253.86
2018-08-22T05:55:56.394Z,100248.05
2018-08-22T05:58:22.347Z,100253.08
2018-08-22T06:00:48.371Z,100250.93
2018-08-22T06:03:14.404Z,100256.89
2018-08-22T06:05:40.395Z,100246.63
2018-08-22T06:08:06.354Z,100249.70
2018-08-22T06:10:32.295Z,100250.89
2018-08-22T06:12:58.256Z,100248.59
2018-08-22T06:15:24.193Z,100253.42
2018-08-22T06:17:50.126Z,100253.42
2018-08-22T06:20:16.065Z,100252.66
2018-08-22T06:22:42.000Z,100256.23
2018-08-22T06:25:07.944Z,100249.72
2018-08-22T06:27:33.874Z,100260.34
2018-08-22T06:29:59.845Z,100252.52
2018-08-22T06:32:25.781Z,100244.70
2018-08-22T06:34:51.731Z,100248.88
2018-08-22T06:37:17.657Z,100249.55
2018-08-22T06:39:43.596Z,100250.09
2018-08-22T06:42:09.534Z,100244.84
2018-08-22T06:44:35.482Z,100241.42
2018-08-22T06:47:01.427Z,100248.20
2018-08-22T06:49:27.393Z,100240.36
2018-08-22T06:51:53.333Z,100240.89
2018-08-22T06:54:19.319Z,100236.98
2018-08-22T06:56:45.276Z,100233.27
2018-08-22T06:59:11.292Z,100233.94
2018-08-22T07:01:37.220Z,100226.17
2018-08-22T07:04:03.207Z,100230.10
2018-08-22T07:06:29.171Z,100227.47
2018-08-22T07:08:55.129Z,100225.45
2018-08-22T07:11:21.076Z,100231.11
2018-08-22T07:13:47.312Z,100228.13
2018-08-22T07:16:13.272Z,100231.62
2018-08-22T07:18:39.249Z,100224.17
2018-08-22T07:21:05.322Z,100228.23
2018-08-22T07:23:31.227Z,100225.84
2018-08-22T07:25:57.231Z,100223.05
2018-08-22T07:28:23.307Z,100229.61
2018-08-22T07:30:49.274Z,100230.58
2018-08-22T07:33:15.228Z,100224.72
2018-08-22T07:35:41.178Z,100229.00
2018-08-22T07:38:07.159Z,100224.88
2018-08-22T07:40:33.104Z,100227.44
2018-08-22T07:42:59.072Z,100218.73
2018-08-22T07:45:25.011Z,100219.80
2018-08-22T07:47:50.947Z,100221.17
2018-08-22T07:50:16.975Z,100226.53
2018-08-22T07:52:42.893Z,100218.14
2018-08-22T07:55:08.924Z,100214.28
2018-08-22T07:57:34.870Z,100219.64
2018-08-22T08:00:00.812Z,100214.66
2018-08-22T08:02:26.765Z,100212.41
2018-08-22T08:04:52.731Z,100214.45
2018-08-22T08:07:18.687Z,100221.69
2018-08-22T08:09:44.676Z,100216.69
2018-08-22T08:12:10.642Z,100217.27
2018-08-22T08:14:36.607Z,100217.26
2018-08-22T08:17:02.593Z,100210.19
2018-08-22T08:19:28.541Z,100209.58
2018-08-22T08:21:54.481Z,100213.54
2018-08-22T08:24:20.442Z,100218.03
2018-08-22T08:26:46.401Z,100206.41
2018-08-22T08:29:12.344Z,100204.02
2018-08-22T08:31:38.292Z,100202.64
2018-08-22T08:34:04.287Z,100213.83
2018-08-22T08:36:30.221Z,100192.30
2018-08-22T08:38:56.140Z,100199.56
2018-08-22T08:41:22.086Z,100194.41
2018-08-22T08:43:48.027Z,100193.84
2018-08-22T08:46:13.970Z,100183.50
2018-08-22T08:48:39.931Z,100186.89
2018-08-22T08:51:05.911Z,100175.30
2018-08-22T08:53:31.880Z,100174.09
2018-08-22T08:55:57.858Z,100169.66
2018-08-22T08:58:23.791Z,100164.28
2018-08-22T09:00:49.757Z,100160.77
2018-08-22T09:03:15.691Z,100159.28
2018-08-22T09:05:41.641Z,100155.34
2018-08-22T09:08:07.574Z,100155.67
2018-08-22T09:10:33.558Z,100152.31
2018-08-22T09:12:59.484Z,100149.28
2018-08-22T09:15:25.456Z,100152.44
2018-08-22T09:17:51.395Z,100148.33
2018-08-22T09:20:17.347Z,100140.16
2018-08-22T09:22:43.292Z,100135.06
2018-08-22T09:25:09.279Z,100135.75
2018-08-22T09:27:35.306Z,100135.85
2018-08-22T09:30:01.350Z,100132.94
2018-08-22T09:32:27.261Z,100128.08
2018-08-22T09:34:53.209Z,100127.41
2018-08-22T09:37:19.165Z,100119.21
2018-08-22T09:39:45.155Z,100116.23
2018-08-22T09:42:11.092Z,100115.80
2018-08-22T09:44:37.017Z,100111.78
2018-08-22T09:47:03.067Z,100113.73
2018-08-22T09:49:29.081Z,100107.27
2018-08-22T09:51:55.050Z,100106.27
2018-08-22T09:54:20.992Z,100116.03
2018-08-22T09:56:47.074Z,100109.11
2018-08-22T09:59:13.025Z,100108.64
2018-08-22T10:01:39.001Z,100102.55
2018-08-22T10:04:04.959Z,100105.85
2018-08-22T10:06:30.988Z,100098.41
2018-08-22T10:08:56.890Z,100102.20
2018-08-22T10:11:22.878Z,100099.48
2018-08-22T10:13:48.845Z,100097.89
2018-08-22T10:16:14.784Z,100092.16
2018-08-22T10:18:40.732Z,100094.76
2018-08-22T10:21:06.688Z,100084.84
2018-08-22T10:23:32.649Z,100084.09
2018-08-22T10:25:58.593Z,100081.75
2018-08-22T10:28:24.524Z,100077.80
2018-08-22T10:30:50.480Z,100075.20
2018-08-22T10:33:16.537Z,100071.88
2018-08-22T10:35:42.479Z,100070.62
2018-08-22T10:38:09.019Z,100067.69
2018-08-22T10:40:34.993Z,100060.89
2018-08-22T10:43:00.931Z,100063.04
2018-08-22T10:45:26.872Z,100065.44
2018-08-22T10:47:52.879Z,100062.20
2018-08-22T10:50:18.809Z,100056.97
2018-08-22T10:52:44.748Z,100057.97
2018-08-22T10:55:10.753Z,100057.56
2018-08-22T10:57:36.713Z,100061.82
2018-08-22T11:00:02.757Z,100054.02
2018-08-22T11:02:29.500Z,100048.75
2018-08-22T11:04:55.436Z,100046.78
2018-08-22T11:07:21.415Z,100045.31
2018-08-22T11:09:47.375Z,100042.58
2018-08-22T11:12:13.325Z,100037.52
2018-08-22T11:14:39.272Z,100033.68
2018-08-22T11:17:05.252Z,100036.65
2018-08-22T11:19:31.237Z,100034.23
2018-08-22T11:21:57.203Z,100038.39
2018-08-22T11:24:23.155Z,100033.44
2018-08-22T11:26:49.130Z,100034.31
2018-08-22T11:29:15.064Z,100031.79
2018-08-22T11:31:41.005Z,100033.97
2018-08-22T11:34:07.025Z,100031.53
2018-08-22T11:36:32.975Z,100024.20
2018-08-22T11:38:58.919Z,100025.63
2018-08-22T11:41:24.880Z,100025.04
2018-08-22T11:43:50.834Z,100021.28
2018-08-22T11:46:16.792Z,100023.66
2018-08-22T11:48:42.748Z,100019.63
2018-08-22T11:51:08.724Z,100019.63
2018-08-22T11:53:34.717Z,100022.23
2018-08-22T11:56:00.669Z,100022.80
2018-08-22T11:58:26.620Z,100023.73
2018-08-22T12:00:52.598Z,100019.11
2018-08-22T12:03:18.531Z,100020.41
2018-08-22T12:05:44.497Z,100018.37
2018-08-22T12:08:10.463Z,100020.09
2018-08-22T12:10:36.433Z,100020.52
2018-08-22T12:13:02.381Z,100019.78
2018-08-22T12:15:28.316Z,100017.32
2018-08-22T12:17:54.298Z,100014.27
2018-08-22T12:20:20.254Z,100012.97
2018-08-22T12:22:46.214Z,100013.59
2018-08-22T12:25:12.187Z,100014.44
2018-08-22T12:27:38.165Z,100006.45
2018-08-22T12:30:04.177Z,100002.02
2018-08-22T12:32:30.129Z,100003.45
2018-08-22T12:34:56.092Z,99996.77
2018-08-22T12:37:22.088Z,99993.03
2018-08-22T12:39:48.038Z,99991.30
2018-08-22T12:42:14.013Z,99989.95
2018-08-22T12:44:40.004Z,99986.32
2018-08-22T12:47:05.922Z,99982.40
2018-08-22T12:49:31.886Z,99983.69
2018-08-22T12:51:57.856Z,99976.59
2018-08-22T12:54:23.851Z,99970.14
2018-08-22T12:56:49.813Z,99971.80
2018-08-22T12:59:15.783Z,99964.10
2018-08-22T13:01:41.760Z,99958.26
2018-08-22T13:04:07.700Z,99963.37
2018-08-22T13:06:33.627Z,99960.06
2018-08-22T13:08:59.616Z,99959.37
2018-08-22T13:11:25.577Z,99958.54
2018-08-22T13:13:51.557Z,99955.13
2018-08-22T13:16:17.514Z,99950.23
2018-08-22T13:18:43.469Z,99949.00
2018-08-22T13:21:09.437Z,99945.27
2018-08-22T13:23:35.464Z,99947.16
2018-08-22T13:26:01.435Z,99946.70
2018-08-22T13:28:27.431Z,99947.36
2018-08-22T13:30:53.374Z,99942.05
2018-08-22T13:33:19.314Z,99942.62
2018-08-22T13:35:45.368Z,99943.59
2018-08-22T13:38:11.303Z,99943.21
2018-08-22T13:40:37.295Z,99938.09
2018-08-22T13:43:03.295Z,99937.58
2018-08-22T13:45:29.299Z,99936.53
2018-08-22T13:47:55.256Z,99931.55
2018-08-22T13:50:21.244Z,99924.31
2018-08-22T13:52:47.200Z,99926.19
2018-08-22T13:55:13.151Z,99920.52
2018-08-22T13:57:39.086Z,99917.92
2018-08-22T14:00:05.067Z,99918.79
2018-08-22T14:02:31.022Z,99919.91
2018-08-22T14:04:56.987Z,99921.51
2018-08-22T14:07:22.925Z,99914.45
2018-08-22T14:09:48.965Z,99910.77
2018-08-22T14:12:14.899Z,99913.83
2018-08-22T14:14:40.886Z,99910.13
2018-08-22T14:17:06.833Z,99916.11
2018-08-22T14:19:32.816Z,99912.66
2018-08-22T14:21:58.768Z,99914.58
2018-08-22T14:24:24.709Z,99914.47
2018-08-22T14:26:50.660Z,99914.36
2018-08-22T14:29:16.619Z,99914.07
2018-08-22T14:31:42.541Z,99909.95
2018-08-22T14:34:08.488Z,99905.48
2018-08-22T14:36:34.460Z,99908.47
2018-08-22T14:39:00.400Z,99905.36
2018-08-22T14:41:26.334Z,99904.19
2018-08-22T14:43:52.294Z,99896.03
2018-08-22T14:46:18.258Z,99895.46
2018-08-22T14:48:44.208Z,99892.55
2018-08-22T14:51:10.168Z,99893.55
2018-08-22T14:53:36.108Z,99898.37
2018-08-22T14:56:02.096Z,99890.00
2018-08-22T14:58:28.005Z,99889.58
2018-08-22T15:00:53.979Z,99888.94
2018-08-22T15:03:20.156Z,99884.25
2018-08-22T15:05:45.908Z,99883.63
2018-08-22T15:08:11.878Z,99887.61
2018-08-22T15:10:37.863Z,99879.70
2018-08-22T15:13:03.892Z,99882.55
2018-08-22T15:15:29.807Z,99877.00
2018-08-22T15:17:55.764Z,99871.94
2018-08-22T15:20:21.733Z,99871.80
2018-08-22T15:22:47.687Z,99870.42
2018-08-22T15:25:13.626Z,99871.37
2018-08-22T15:27:39.569Z,99867.03
2018-08-22T15:30:05.516Z,99863.87
2018-08-22T15:32:31.494Z,99862.84
2018-08-22T15:34:57.448Z,99859.55
2018-08-22T15:37:23.453Z,99854.47
2018-08-22T15:39:49.425Z,99855.01
2018-08-22T15:42:15.363Z,99849.56
2018-08-22T15:44:41.322Z,99848.16
2018-08-22T15:47:07.274Z,99847.55
2018-08-22T15:49:33.242Z,99839.41
2018-08-22T15:51:59.188Z,99839.52
2018-08-22T15:54:25.130Z,99840.36
2018-08-22T15:56:51.135Z,99835.51
2018-08-22T15:59:17.111Z,99838.68
2018-08-22T16:01:43.068Z,99832.17
2018-08-22T16:04:09.033Z,99836.34
2018-08-22T16:06:34.998Z,99832.45
2018-08-22T16:09:00.944Z,99825.56
2018-08-22T16:11:26.935Z,99825.67
2018-08-22T16:13:52.891Z,99823.46
2018-08-22T16:16:18.876Z,99822.62
2018-08-22T16:18:44.824Z,99813.06
2018-08-22T16:21:10.788Z,99815.28
2018-08-22T16:23:36.737Z,99809.16
2018-08-22T16:26:02.685Z,99804.08
2018-08-22T16:28:28.651Z,99806.56
2018-08-22T16:30:57.433Z,99805.80
2018-08-22T16:33:20.570Z,99801.55
2018-08-22T16:35:46.580Z,99800.60
2018-08-22T16:38:12.508Z,99784.95
2018-08-22T16:40:38.432Z,99791.96
2018-08-22T16:43:04.369Z,99792.80
2018-08-22T16:45:30.303Z,99796.35
2018-08-22T16:47:56.272Z,99796.35
2018-08-22T16:50:22.239Z,99799.77
2018-08-22T16:52:48.215Z,99795.17
2018-08-22T16:55:14.177Z,99792.56
2018-08-22T16:57:40.140Z,99799.26
2018-08-22T17:00:06.110Z,99794.04
2018-08-22T17:02:32.081Z,99791.34
2018-08-22T17:04:58.010Z,99800.78
2018-08-22T17:07:23.974Z,99793.83
2018-08-22T17:09:49.929Z,99798.23
2018-08-22T17:12:15.888Z,99790.16
2018-08-22T17:14:41.838Z,99794.55
2018-08-22T17:17:07.791Z,99793.48
2018-08-22T17:19:33.733Z,99794.91
2018-08-22T17:21:59.736Z,99791.45
2018-08-22T17:24:25.718Z,99787.33
2018-08-22T17:26:51.698Z,99795.47
2018-08-22T17:29:17.694Z,99790.66
2018-08-22T17:31:43.666Z,99789.36
2018-08-22T17:34:09.684Z,99789.81
2018-08-22T17:36:35.633Z,99791.73
2018-08-22T17:39:01.585Z,99792.88
2018-08-22T17:41:27.555Z,99793.09
2018-08-22T17:43:53.552Z,99797.84
2018-08-22T17:46:19.548Z,99791.80
2018-08-22T17:48:45.529Z,99791.34
2018-08-22T17:51:12.582Z,99793.94
2018-08-22T17:53:38.560Z,99797.00
2018-08-22T17:56:04.521Z,99796.76
2018-08-22T17:58:30.669Z,99799.59
2018-08-22T18:00:56.697Z,99799.70
2018-08-22T18:03:22.694Z,99801.12
2018-08-22T18:05:48.642Z,99802.80
2018-08-22T18:08:14.588Z,99809.30
2018-08-22T18:10:40.546Z,99808.00
2018-08-22T18:13:06.501Z,99810.22
2018-08-22T18:15:32.453Z,99811.28
2018-08-22T18:17:58.400Z,99811.45
2018-08-22T18:20:24.362Z,99812.53
2018-08-22T18:22:50.382Z,99818.84
2018-08-22T18:25:16.347Z,99821.56
2018-08-22T18:27:42.325Z,99820.26
2018-08-22T18:30:08.319Z,99818.61
2018-08-22T18:32:34.266Z,99834.09
2018-08-22T18:35:00.255Z,99831.60
2018-08-22T18:37:26.172Z,99829.92
2018-08-22T18:39:52.144Z,99832.69
2018-08-22T18:42:18.110Z,99840.42
2018-08-22T18:44:44.096Z,99836.94
2018-08-22T18:47:10.077Z,99830.12
2018-08-22T18:49:36.067Z,99839.16
2018-08-22T18:52:02.018Z,99841.53
2018-08-22T18:54:27.984Z,99850.50
2018-08-22T18:56:53.945Z,99842.46
2018-08-22T18:59:20.019Z,99842.25
2018-08-22T19:01:45.971Z,99844.62
2018-08-22T19:04:11.936Z,99841.28
2018-08-22T19:06:37.964Z,99847.43
2018-08-22T19:09:03.937Z,99848.45
2018-08-22T19:11:29.892Z,99845.83
2018-08-22T19:13:55.874Z,99844.58
2018-08-22T19:16:21.833Z,99854.82
2018-08-22T19:18:47.785Z,99855.48
2018-08-22T19:21:13.737Z,99851.70
2018-08-22T19:23:39.712Z,99847.95
2018-08-22T19:26:05.754Z,99846.23
2018-08-22T19:28:31.746Z,99848.52
2018-08-22T19:30:57.713Z,99849.20
2018-08-22T19:33:23.679Z,99841.87
2018-08-22T19:35:49.646Z,99850.02
2018-08-22T19:38:15.623Z,99850.87
2018-08-22T19:40:41.578Z,99851.59
2018-08-22T19:43:07.547Z,99849.91
2018-08-22T19:45:33.519Z,99846.77
2018-08-22T19:47:59.486Z,99849.11
2018-08-22T19:50:25.505Z,99804.53
2018-08-22T19:52:51.465Z,99851.22
2018-08-22T19:55:17.477Z,99848.27
2018-08-22T19:57:43.415Z,99849.25
2018-08-22T20:00:09.442Z,99846.76
2018-08-22T20:02:35.407Z,99843.84
2018-08-22T20:05:01.381Z,99846.37
2018-08-22T20:07:27.334Z,99847.80
2018-08-22T20:09:53.301Z,99844.27
2018-08-22T20:12:19.238Z,99845.77
2018-08-22T20:14:45.271Z,99843.25
2018-08-22T20:17:11.301Z,99845.98
2018-08-22T20:19:37.209Z,99848.77
2018-08-22T20:22:03.191Z,99845.66
2018-08-22T20:24:29.376Z,99845.86
2018-08-22T20:26:55.222Z,99841.83
2018-08-22T20:29:21.199Z,99841.34
2018-08-22T20:31:47.173Z,99843.63
2018-08-22T20:34:13.169Z,99838.52
2018-08-22T20:36:39.189Z,99845.84
2018-08-22T20:39:05.168Z,99838.28
2018-08-22T20:41:31.132Z,99838.52
2018-08-22T20:43:57.065Z,99822.83
2018-08-22T20:46:22.989Z,99834.38
2018-08-22T20:48:48.937Z,99837.14
2018-08-22T20:51:14.905Z,99831.98
2018-08-22T20:53:40.861Z,99834.09
2018-08-22T20:56:06.844Z,99825.66
2018-08-22T20:58:32.814Z,99831.85
2018-08-22T21:00:58.868Z,99831.03
2018-08-22T21:03:24.827Z,99832.52
2018-08-22T21:05:50.761Z,99834.38
2018-08-22T21:08:16.749Z,99829.56
2018-08-22T21:10:42.688Z,99833.81
2018-08-22T21:13:08.653Z,99839.63
2018-08-22T21:15:34.591Z,99834.91
2018-08-22T21:18:00.552Z,99837.94
2018-08-22T21:20:26.504Z,99844.21
2018-08-22T21:22:52.465Z,99841.68
2018-08-22T21:25:18.436Z,99842.81
2018-08-22T21:27:44.375Z,99837.78
2018-08-22T21:30:10.373Z,99841.83
2018-08-22T21:32:36.332Z,99844.31
2018-08-22T21:35:02.322Z,99835.95
2018-08-22T21:37:28.252Z,99836.30
2018-08-22T21:39:54.205Z,99840.67
2018-08-22T21:42:20.150Z,99833.94
2018-08-22T21:44:46.117Z,99836.34
2018-08-22T21:47:12.085Z,99833.78
2018-08-22T21:49:38.060Z,99829.86
2018-08-22T21:52:04.040Z,99832.94
2018-08-22T21:54:30.001Z,99831.36
2018-08-22T21:56:55.946Z,99830.77
2018-08-22T21:59:21.905Z,99824.23
2018-08-22T22:01:47.855Z,99829.08
2018-08-22T22:04:13.808Z,99825.23
2018-08-22T22:06:39.778Z,99818.41
2018-08-22T22:09:05.750Z,99820.99
2018-08-22T22:11:31.789Z,99820.83
2018-08-22T22:13:57.753Z,99823.78
2018-08-22T22:16:23.676Z,99817.41
2018-08-22T22:18:49.629Z,99818.98
2018-08-22T22:21:15.616Z,99822.39
2018-08-22T22:23:41.572Z,99822.38
2018-08-22T22:26:07.557Z,99821.19
2018-08-22T22:28:33.507Z,99820.09
2018-08-22T22:30:59.453Z,99812.32
2018-08-22T22:33:25.439Z,99819.89
2018-08-22T22:35:51.380Z,99812.84
2018-08-22T22:38:17.327Z,99816.69
2018-08-22T22:40:43.273Z,99815.10
2018-08-22T22:43:09.218Z,99811.89
2018-08-22T22:45:35.187Z,99811.24
2018-08-22T22:48:01.149Z,99812.72
2018-08-22T22:50:27.121Z,99811.05
2018-08-22T22:52:53.089Z,99809.75
2018-08-22T22:55:19.035Z,99807.16
2018-08-22T22:57:44.996Z,99805.70
2018-08-22T23:00:10.955Z,99803.02
2018-08-22T23:02:36.917Z,99804.60
2018-08-22T23:05:02.887Z,99798.13
2018-08-22T23:07:28.864Z,99797.91
2018-08-22T23:09:54.825Z,99792.55
2018-08-22T23:12:20.784Z,99795.13
2018-08-22T23:14:46.731Z,99792.75
2018-08-22T23:17:12.734Z,99794.33
2018-08-22T23:19:38.689Z,99790.72
2018-08-22T23:22:04.670Z,99790.51
2018-08-22T23:24:30.675Z,99791.98
2018-08-22T23:26:56.643Z,99786.25
2018-08-22T23:29:22.607Z,99787.17
2018-08-22T23:31:48.582Z,99783.48
2018-08-22T23:34:14.520Z,99784.58
2018-08-22T23:36:40.458Z,99781.64
2018-08-22T23:39:06.407Z,99777.31
2018-08-22T23:41:32.391Z,99770.37
2018-08-22T23:43:58.365Z,99771.29
2018-08-22T23:46:24.311Z,99758.80
2018-08-22T23:48:50.250Z,99764.42
2018-08-22T23:51:16.208Z,99762.38
2018-08-22T23:53:42.167Z,99765.73
2018-08-22T23:56:08.149Z,99759.97
2018-08-22T23:58:34.118Z,99759.16
